createdAt,value
2023-04-19T00:01:49.453Z,97.27
2023-04-19T00:06:49.454Z,97.26
2023-04-19T00:11:49.445Z,97.26
2023-04-19T00:16:49.456Z,97.26
2023-04-19T00:21:49.448Z,97.26
2023-04-19T00:26:49.459Z,97.25
2023-04-19T00:31:49.450Z,97.25
2023-04-19T00:36:49.461Z,97.25
2023-04-19T00:41:49.527Z,97.25
2023-04-19T00:46:49.454Z,97.25
2023-04-19T00:51:49.509Z,97.24
2023-04-19T00:56:49.456Z,97.24
2023-04-19T01:01:49.468Z,97.24
2023-04-19T01:11:49.470Z,97.24
2023-04-19T01:16:49.473Z,97.23
2023-04-19T01:21:49.462Z,97.23
2023-04-19T01:26:49.475Z,97.23
2023-04-19T01:31:49.465Z,97.22
2023-04-19T01:36:49.476Z,97.21
2023-04-19T01:41:49.477Z,97.2
2023-04-19T01:46:49.469Z,97.21
2023-04-19T01:51:49.482Z,97.2
2023-04-19T01:56:49.471Z,97.2
2023-04-19T02:01:49.483Z,97.21
2023-04-19T02:06:49.483Z,97.21
2023-04-19T02:11:49.485Z,97.2
2023-04-19T02:16:49.487Z,97.19
2023-04-19T02:21:49.477Z,97.18
2023-04-19T02:26:49.488Z,97.19
2023-04-19T02:31:49.479Z,97.19
2023-04-19T02:36:49.491Z,97.19
2023-04-19T02:41:49.491Z,97.19
2023-04-19T02:46:49.481Z,97.19
2023-04-19T02:51:49.496Z,97.18
2023-04-19T02:56:49.485Z,97.17
2023-04-19T03:01:49.497Z,97.17
2023-04-19T03:06:49.497Z,97.17
2023-04-19T03:11:49.499Z,97.16
2023-04-19T03:16:49.499Z,97.16
2023-04-19T03:21:49.490Z,97.17
2023-04-19T03:26:49.501Z,97.16
2023-04-19T03:31:49.493Z,97.15
2023-04-19T03:36:49.552Z,97.16
2023-04-19T03:41:49.506Z,97.15
2023-04-19T03:46:49.507Z,97.14
2023-04-19T03:51:49.507Z,97.14
2023-04-19T03:56:49.498Z,97.15
2023-04-19T04:01:49.510Z,97.14
2023-04-19T04:06:49.500Z,97.14
2023-04-19T04:11:49.512Z,97.14
2023-04-19T04:16:49.512Z,97.14
2023-04-19T04:21:49.503Z,97.14
2023-04-19T04:26:49.514Z,97.14
2023-04-19T04:31:49.506Z,97.15
2023-04-19T04:36:49.518Z,97.15
2023-04-19T04:41:49.518Z,97.15
2023-04-19T04:46:49.520Z,97.14
2023-04-19T04:51:49.520Z,97.14
2023-04-19T04:56:49.511Z,97.14
2023-04-19T05:01:49.523Z,97.14
2023-04-19T05:06:49.513Z,97.13
2023-04-19T05:11:49.525Z,97.13
2023-04-19T05:16:49.525Z,97.13
2023-04-19T05:21:49.517Z,97.14
2023-04-19T05:26:49.528Z,97.13
2023-04-19T05:31:49.519Z,97.13
2023-04-19T05:36:49.531Z,97.13
2023-04-19T05:41:49.531Z,97.13
2023-04-19T05:46:49.533Z,97.12
2023-04-19T05:51:49.534Z,97.12
2023-04-19T05:56:49.525Z,97.12
2023-04-19T06:01:49.536Z,97.11
2023-04-19T06:06:49.527Z,97.12
2023-04-19T06:11:49.539Z,97.12
2023-04-19T06:16:49.540Z,97.12
2023-04-19T06:21:49.530Z,97.12
2023-04-19T06:26:49.544Z,97.1
2023-04-19T06:31:49.533Z,97.11
2023-04-19T06:36:49.546Z,97.11
2023-04-19T06:41:49.536Z,97.11
2023-04-19T06:46:49.548Z,97.11
2023-04-19T06:51:49.548Z,97.11
2023-04-19T06:56:49.540Z,97.11
2023-04-19T07:01:49.553Z,97.11
2023-04-19T07:06:49.542Z,97.11
2023-04-19T07:11:49.555Z,97.1
2023-04-19T07:16:49.555Z,97.09
2023-04-19T07:21:49.557Z,97.08
2023-04-19T07:26:49.560Z,97.07
2023-04-19T07:31:49.549Z,97.07
2023-04-19T07:36:49.562Z,97.07
2023-04-19T07:41:49.552Z,97.07
2023-04-19T07:46:49.564Z,97.07
2023-04-19T07:51:49.565Z,97.07
2023-04-19T07:56:49.556Z,97.07
2023-04-19T08:01:49.570Z,97.06
2023-04-19T08:11:49.571Z,97.06
2023-04-19T08:16:49.572Z,97.06
2023-04-19T08:21:49.574Z,97.06
2023-04-19T08:26:49.575Z,97.05
2023-04-19T08:31:49.566Z,97.04
2023-04-19T08:36:49.578Z,97.04
2023-04-19T08:41:49.569Z,97.04
2023-04-19T08:46:49.629Z,97.04
2023-04-19T08:51:49.582Z,97.04
2023-04-19T08:56:49.572Z,97.03
2023-04-19T09:01:49.587Z,97.02
2023-04-19T09:06:49.576Z,97
2023-04-19T09:11:49.589Z,96.99
2023-04-19T09:16:49.579Z,96.99
2023-04-19T09:21:49.592Z,96.99
2023-04-19T09:26:49.593Z,96.99
2023-04-19T09:31:49.584Z,96.98
2023-04-19T09:36:49.598Z,96.98
2023-04-19T09:41:49.587Z,96.99
2023-04-19T09:46:49.600Z,96.99
2023-04-19T09:51:49.600Z,96.98
2023-04-19T09:56:49.603Z,96.98
2023-04-19T10:01:49.605Z,96.98
2023-04-19T10:06:49.595Z,96.98
2023-04-19T10:11:49.607Z,96.98
2023-04-19T10:16:49.597Z,96.98
2023-04-19T10:21:49.610Z,96.99
2023-04-19T10:26:49.611Z,96.98
2023-04-19T10:31:49.602Z,96.98
2023-04-19T10:36:49.616Z,96.98
2023-04-19T10:41:49.605Z,96.97
2023-04-19T10:46:49.617Z,96.98
2023-04-19T10:51:49.618Z,96.97
2023-04-19T10:56:49.620Z,96.97
2023-04-19T11:01:49.622Z,96.96
2023-04-19T11:06:49.612Z,96.96
2023-04-19T11:11:49.624Z,96.97
2023-04-19T11:16:49.614Z,96.96
2023-04-19T11:21:49.626Z,96.96
2023-04-19T11:26:49.627Z,96.96
2023-04-19T11:31:49.617Z,96.97
2023-04-19T11:36:49.631Z,96.96
2023-04-19T11:41:49.620Z,96.96
2023-04-19T11:46:49.632Z,96.95
2023-04-19T11:51:50.667Z,96.95
2023-04-19T11:56:49.635Z,96.94
2023-04-19T12:01:49.660Z,96.94
2023-04-19T12:06:49.626Z,96.94
2023-04-19T12:11:49.641Z,96.94
2023-04-19T12:16:49.629Z,96.93
2023-04-19T12:21:49.641Z,96.94
2023-04-19T12:26:49.641Z,96.93
2023-04-19T12:31:49.643Z,96.92
2023-04-19T12:36:49.646Z,96.92
2023-04-19T12:41:49.635Z,96.92
2023-04-19T12:46:49.647Z,96.91
2023-04-19T12:51:56.682Z,96.9
2023-04-19T12:56:49.650Z,96.9
2023-04-19T13:01:49.650Z,96.89
2023-04-19T13:06:49.641Z,96.87
2023-04-19T13:11:49.655Z,96.87
2023-04-19T13:16:49.644Z,96.87
2023-04-19T13:21:49.656Z,96.86
2023-04-19T13:26:49.658Z,96.86
2023-04-19T13:31:49.659Z,96.85
2023-04-19T13:36:49.661Z,96.84
2023-04-19T13:41:49.651Z,96.83
2023-04-19T13:46:49.662Z,96.81
2023-04-19T13:52:02.698Z,96.82
2023-04-19T13:56:49.666Z,96.82
2023-04-19T14:01:49.667Z,96.81
2023-04-19T14:06:49.657Z,96.81
2023-04-19T14:11:49.671Z,96.81
2023-04-19T14:16:49.661Z,96.8
2023-04-19T14:21:49.672Z,96.79
2023-04-19T14:26:49.674Z,96.79
2023-04-19T14:31:49.675Z,96.77
2023-04-19T14:36:49.717Z,96.77
2023-04-19T14:41:49.668Z,96.77
2023-04-19T14:46:49.682Z,96.76
2023-04-19T14:52:08.722Z,96.76
2023-04-19T14:56:49.707Z,96.75
2023-04-19T15:01:49.684Z,96.73
2023-04-19T15:06:49.688Z,96.71
2023-04-19T15:11:49.690Z,96.71
2023-04-19T15:16:49.680Z,96.72
2023-04-19T15:21:49.692Z,96.71
2023-04-19T15:26:49.683Z,96.72
2023-04-19T15:31:49.695Z,96.72
2023-04-19T15:36:49.698Z,96.73
2023-04-19T15:41:49.689Z,96.73
2023-04-19T15:46:49.703Z,96.73
2023-04-19T15:52:14.696Z,96.73
2023-04-19T15:56:49.704Z,96.73
2023-04-19T16:01:49.706Z,96.75
2023-04-19T16:06:49.708Z,96.76
2023-04-19T16:11:49.712Z,96.77
2023-04-19T16:16:49.701Z,96.75
2023-04-19T16:21:49.713Z,96.76
2023-04-19T16:26:49.705Z,96.76
2023-04-19T16:31:49.716Z,96.77
2023-04-19T16:36:49.718Z,96.78
2023-04-19T16:41:49.710Z,96.78
2023-04-19T16:46:49.723Z,96.77
2023-04-19T16:52:04.191Z,96.78
2023-04-19T16:56:49.724Z,96.78
2023-04-19T17:01:49.727Z,96.79
2023-04-19T17:06:49.727Z,96.79
2023-04-19T17:11:49.730Z,96.79
2023-04-19T17:16:49.720Z,96.79
2023-04-19T17:21:49.731Z,96.8
2023-04-19T17:26:49.723Z,96.8
2023-04-19T17:31:49.734Z,96.81
2023-04-19T17:36:49.735Z,96.82
2023-04-19T17:41:49.761Z,96.82
2023-04-19T17:46:49.740Z,96.81
2023-04-19T17:52:20.635Z,96.82
2023-04-19T17:56:49.740Z,96.82
2023-04-19T18:02:04.171Z,96.81
2023-04-19T18:06:49.743Z,96.81
2023-04-19T18:12:06.223Z,96.82
2023-04-19T18:16:49.735Z,96.83
2023-04-19T18:21:49.746Z,96.82
2023-04-19T18:26:49.738Z,96.83
2023-04-19T18:31:49.749Z,96.83
2023-04-19T18:36:49.751Z,96.83
2023-04-19T18:41:49.741Z,96.83
2023-04-19T18:46:49.754Z,96.83
2023-04-19T18:51:49.743Z,96.83
2023-04-19T18:56:49.754Z,96.83
2023-04-19T19:01:49.755Z,96.83
2023-04-19T19:06:49.756Z,96.83
2023-04-19T19:11:49.757Z,96.85
2023-04-19T19:16:49.749Z,96.85
2023-04-19T19:21:49.826Z,96.85
2023-04-19T19:26:49.751Z,96.85
2023-04-19T19:31:49.802Z,96.85
2023-04-19T19:36:49.764Z,96.85
2023-04-19T19:41:49.754Z,96.86
2023-04-19T19:46:49.767Z,96.86
2023-04-19T19:51:49.756Z,96.86
2023-04-19T19:56:49.767Z,96.87
2023-04-19T20:01:49.768Z,96.87
2023-04-19T20:06:49.769Z,96.87
2023-04-19T20:11:49.834Z,96.87
2023-04-19T20:16:49.761Z,96.87
2023-04-19T20:21:49.816Z,96.87
2023-04-19T20:26:49.763Z,96.87
2023-04-19T20:31:49.774Z,96.87
2023-04-19T20:36:49.775Z,96.87
2023-04-19T20:41:49.776Z,96.87
2023-04-19T20:46:49.776Z,96.86
2023-04-19T20:51:49.767Z,96.86
2023-04-19T20:56:49.778Z,96.86
2023-04-19T21:01:49.769Z,96.87
2023-04-19T21:06:49.780Z,96.88
2023-04-19T21:11:49.781Z,96.88
2023-04-19T21:16:49.772Z,96.87
2023-04-19T21:21:49.785Z,96.86
2023-04-19T21:26:49.774Z,96.86
2023-04-19T21:31:49.784Z,96.86
2023-04-19T21:36:49.785Z,96.86
2023-04-19T21:41:49.786Z,96.85
2023-04-19T21:46:49.787Z,96.86
2023-04-19T21:51:49.778Z,96.85
2023-04-19T21:56:49.788Z,96.84
2023-04-19T22:01:49.779Z,96.84
2023-04-19T22:06:49.790Z,96.83
2023-04-19T22:11:49.792Z,96.84
2023-04-19T22:16:49.782Z,96.83
2023-04-19T22:21:49.792Z,96.83
2023-04-19T22:26:49.783Z,96.83
2023-04-19T22:31:49.794Z,96.83
2023-04-19T22:36:49.784Z,96.82
2023-04-19T22:41:49.795Z,96.82
2023-04-19T22:46:49.795Z,96.82
2023-04-19T22:51:49.786Z,96.82
2023-04-19T22:56:49.797Z,96.8
2023-04-19T23:01:49.787Z,96.8
2023-04-19T23:06:49.847Z,96.8
2023-04-19T23:11:49.799Z,96.79
2023-04-19T23:16:49.799Z,96.78
2023-04-19T23:21:49.800Z,96.77
2023-04-19T23:26:49.790Z,96.76
2023-04-19T23:31:49.801Z,96.76
2023-04-19T23:36:49.792Z,96.75
2023-04-19T23:41:49.802Z,96.75
2023-04-19T23:46:49.803Z,96.74
2023-04-19T23:51:49.793Z,96.74
2023-04-19T23:56:49.804Z,96.74
